SHDO weather

Valle Nevado Heliport
Farellones, Santiago Metropolitan Region, Chile

Public forecast

Using degrees Celsius for public forecast. Weather courtesy of forecast.io.

METAR (pilot weather report)

Report is more than 2 hours old.

Closest report is Eulogio Sánchez Airport, 15.8 nm (29.2 km) WSW. Retrieved 2019/09/18 23:00 UTC (4 hours ago):

SCTB 182300Z 24005KT CAVOK 16/06 Q1014

TAF (pilot weather forecast)

Closest forecast is Comodoro Arturo Merino Benítez International Airport, 26.8 nm (49.7 km) W. Retrieved 2019/09/19 00:00 UTC (3 hours ago):

TAF SCEL 182221Z 1900/1924 21013KT CAVOK TX17/1918Z TN04/1911Z BECMG 1900/1902 19008KT BKN010 BECMG 1906/1908 VRB02KT 4000 BR BKN005 TEMPO 1910/1912 2000 BR OVC005 BECMG 1914/1916 8000 SCT020 BKN040